createdAt,value
2022-11-14T00:01:13.607Z,8.30
2022-11-14T00:06:34.760Z,8.80
2022-11-14T00:17:17.901Z,9.70
2022-11-14T00:22:39.018Z,8.80
2022-11-14T00:28:00.341Z,8.00
2022-11-14T00:33:21.496Z,8.30
2022-11-14T00:38:42.416Z,8.40
2022-11-14T00:44:03.380Z,8.40
2022-11-14T00:49:24.539Z,10.80
2022-11-14T00:54:45.368Z,10.70
2022-11-14T01:00:07.278Z,12.60
2022-11-14T01:05:28.446Z,11.60
2022-11-14T01:10:51.050Z,10.60
2022-11-14T01:16:12.513Z,9.40
2022-11-14T01:21:33.391Z,9.60
2022-11-14T01:26:57.498Z,9.20
2022-11-14T01:32:18.413Z,9.10
2022-11-14T01:37:39.314Z,10.10
2022-11-14T01:43:18.312Z,9.60
2022-11-14T01:48:45.750Z,9.00
2022-11-14T01:54:11.623Z,10.20
2022-11-14T01:59:36.539Z,9.30
2022-11-14T02:05:07.743Z,9.50
2022-11-14T02:10:28.774Z,9.00
2022-11-14T02:15:50.348Z,9.70
2022-11-14T02:21:11.518Z,12.00
2022-11-14T02:26:36.615Z,10.60
2022-11-14T02:31:57.816Z,10.00
2022-11-14T02:37:18.852Z,10.30
2022-11-14T02:42:39.788Z,8.70
2022-11-14T02:48:00.522Z,10.00
2022-11-14T02:53:21.778Z,10.40
2022-11-14T02:58:42.672Z,10.50
2022-11-14T03:04:04.005Z,9.70
2022-11-14T03:09:24.851Z,9.60
2022-11-14T03:14:46.183Z,9.50
2022-11-14T03:20:08.306Z,8.30
2022-11-14T03:25:29.047Z,9.00
2022-11-14T03:30:50.140Z,10.50
2022-11-14T03:36:11.453Z,10.00
2022-11-14T03:41:32.375Z,8.60
2022-11-14T03:46:53.400Z,9.40
2022-11-14T03:52:14.124Z,8.50
2022-11-14T03:57:34.970Z,9.20
2022-11-14T04:02:56.476Z,8.20
2022-11-14T04:08:17.841Z,10.30
2022-11-14T04:13:38.731Z,10.80
2022-11-14T04:18:59.657Z,8.60
2022-11-14T04:24:20.701Z,8.30
2022-11-14T04:29:41.630Z,8.70
2022-11-14T04:35:02.629Z,8.10
2022-11-14T04:40:23.663Z,8.80
2022-11-14T04:45:44.722Z,8.90
2022-11-14T04:51:05.873Z,8.00
2022-11-14T04:56:26.994Z,8.20
2022-11-14T05:01:47.795Z,7.90
2022-11-14T05:07:09.045Z,9.70
2022-11-14T05:12:30.132Z,8.30
2022-11-14T05:17:51.349Z,7.40
2022-11-14T05:23:24.225Z,8.80
2022-11-14T05:28:45.179Z,7.70
2022-11-14T05:34:05.859Z,7.30
2022-11-14T05:39:26.612Z,7.40
2022-11-14T05:44:47.735Z,9.20
2022-11-14T05:50:09.098Z,7.40
2022-11-14T05:55:30.264Z,7.10
2022-11-14T06:00:54.336Z,8.90
2022-11-14T06:06:19.883Z,10.20
2022-11-14T06:11:40.950Z,8.60
2022-11-14T06:17:02.104Z,9.20
2022-11-14T06:22:23.316Z,7.80
2022-11-14T06:27:44.251Z,6.90
2022-11-14T06:33:05.366Z,7.20
2022-11-14T06:38:26.848Z,8.50
2022-11-14T06:43:50.964Z,10.30
2022-11-14T06:49:12.104Z,7.70
2022-11-14T06:54:33.466Z,9.20
2022-11-14T06:59:54.617Z,7.70
2022-11-14T07:05:15.883Z,7.60
2022-11-14T07:10:37.145Z,8.70
2022-11-14T07:15:57.986Z,11.20
2022-11-14T07:21:19.264Z,11.40
2022-11-14T07:26:40.487Z,10.70
2022-11-14T07:32:01.753Z,12.00
2022-11-14T07:37:22.834Z,12.60
2022-11-14T07:42:44.009Z,9.90
2022-11-14T07:48:05.313Z,11.50
2022-11-14T07:53:26.307Z,11.90
2022-11-14T07:58:47.452Z,9.00
2022-11-14T08:04:08.449Z,9.90
2022-11-14T08:09:32.622Z,11.10
2022-11-14T08:14:58.543Z,11.70
2022-11-14T08:20:19.920Z,9.80
2022-11-14T08:25:42.045Z,10.50
2022-11-14T08:31:04.485Z,10.80
2022-11-14T08:36:25.678Z,10.40
2022-11-14T08:41:46.679Z,8.40
2022-11-14T08:47:07.745Z,9.20
2022-11-14T08:52:29.122Z,8.60
2022-11-14T08:57:53.771Z,9.10
2022-11-14T09:03:16.275Z,10.80
2022-11-14T09:08:37.523Z,10.70
2022-11-14T09:13:59.056Z,9.20
2022-11-14T09:19:20.231Z,8.10
2022-11-14T09:30:13.385Z,10.20
2022-11-14T09:35:34.860Z,9.30
2022-11-14T09:41:24.894Z,11.10
2022-11-14T09:47:10.939Z,11.50
2022-11-14T09:52:38.631Z,9.80
2022-11-14T09:58:01.148Z,11.50
2022-11-14T10:03:22.021Z,11.60
2022-11-14T10:08:53.147Z,13.70
2022-11-14T10:14:41.554Z,11.20
2022-11-14T10:20:31.398Z,10.80
2022-11-14T10:26:00.420Z,11.40
2022-11-14T10:32:00.154Z,13.00
2022-11-14T10:37:45.493Z,11.50
2022-11-14T10:43:37.284Z,12.10
2022-11-14T10:49:00.498Z,13.20
2022-11-14T10:54:31.202Z,11.90
2022-11-14T10:59:53.936Z,11.80
2022-11-14T11:05:17.237Z,10.40
2022-11-14T11:11:02.220Z,10.70
2022-11-14T11:16:25.410Z,10.30
2022-11-14T11:21:52.296Z,10.80
2022-11-14T11:27:20.394Z,11.50
2022-11-14T11:32:41.645Z,11.60
2022-11-14T11:38:03.421Z,11.90
2022-11-14T11:43:40.208Z,11.30
2022-11-14T11:49:28.416Z,9.80
2022-11-14T11:55:11.213Z,11.70
2022-11-14T12:00:32.430Z,12.60
2022-11-14T12:06:13.812Z,11.10
2022-11-14T12:11:38.093Z,13.30
2022-11-14T12:17:10.680Z,12.30
2022-11-14T12:23:09.256Z,11.80
2022-11-14T12:29:07.885Z,11.70
2022-11-14T12:34:42.557Z,12.50
2022-11-14T12:40:07.661Z,11.90
2022-11-14T12:45:41.192Z,12.40
2022-11-14T12:51:04.170Z,11.10
2022-11-14T12:56:31.425Z,10.20
2022-11-14T13:01:52.362Z,10.20
2022-11-14T13:07:33.875Z,12.10
2022-11-14T13:13:31.735Z,10.60
2022-11-14T13:19:37.211Z,9.50
2022-11-14T13:25:03.973Z,9.20
2022-11-14T13:31:10.358Z,9.10
2022-11-14T13:36:47.762Z,9.50
2022-11-14T13:43:03.236Z,10.40
2022-11-14T13:49:21.761Z,9.90
2022-11-14T13:55:01.889Z,10.30
2022-11-14T14:00:22.498Z,11.40
2022-11-14T14:06:30.757Z,9.70
2022-11-14T14:12:03.204Z,9.70
2022-11-14T14:17:45.471Z,9.40
2022-11-14T14:23:35.532Z,8.70
2022-11-14T14:29:17.946Z,8.30
2022-11-14T14:34:41.860Z,9.00
2022-11-14T14:40:08.919Z,11.30
2022-11-14T14:45:31.974Z,9.10
2022-11-14T14:50:55.476Z,8.10
2022-11-14T14:56:22.620Z,8.10
2022-11-14T15:01:43.963Z,8.40
2022-11-14T15:07:05.266Z,8.40
2022-11-14T15:12:28.965Z,8.10
2022-11-14T15:17:51.078Z,7.20
2022-11-14T15:23:15.383Z,6.80
2022-11-14T15:34:32.193Z,6.60
2022-11-14T15:39:53.149Z,6.40
2022-11-14T15:45:27.694Z,6.20
2022-11-14T15:50:51.044Z,6.10
2022-11-14T15:56:16.214Z,6.10
2022-11-14T16:01:37.197Z,6.00
2022-11-14T16:06:58.834Z,6.10
2022-11-14T16:12:20.112Z,6.00
2022-11-14T16:17:43.536Z,6.40
2022-11-14T16:23:05.533Z,6.30
2022-11-14T16:28:26.388Z,6.00
2022-11-14T16:33:47.405Z,5.60
2022-11-14T16:39:11.550Z,5.60
2022-11-14T16:44:38.974Z,5.60
2022-11-14T16:50:03.650Z,5.80
2022-11-14T16:55:24.818Z,5.50
2022-11-14T17:00:45.531Z,5.30
2022-11-14T17:06:08.630Z,5.20
2022-11-14T17:11:29.565Z,5.30
2022-11-14T17:16:50.426Z,5.60
2022-11-14T17:22:15.746Z,5.40
2022-11-14T17:27:36.630Z,5.40
2022-11-14T17:32:57.762Z,5.60
2022-11-14T17:38:18.677Z,5.40
2022-11-14T17:43:40.595Z,5.40
2022-11-14T17:49:02.532Z,5.10
2022-11-14T17:54:23.297Z,5.00
2022-11-14T17:59:44.518Z,5.00
2022-11-14T18:05:05.792Z,5.00
2022-11-14T18:10:26.881Z,4.70
2022-11-14T18:15:47.907Z,5.00
2022-11-14T18:21:17.664Z,5.00
2022-11-14T18:26:39.071Z,4.70
2022-11-14T18:31:59.855Z,4.80
2022-11-14T18:37:22.351Z,4.80
2022-11-14T18:42:43.537Z,4.60
2022-11-14T18:48:04.422Z,4.50
2022-11-14T18:53:25.321Z,4.40
2022-11-14T18:58:46.156Z,4.40
2022-11-14T19:04:09.757Z,4.20
2022-11-14T19:09:30.631Z,4.30
2022-11-14T19:14:51.847Z,4.10
2022-11-14T19:20:14.578Z,4.10
2022-11-14T19:25:38.004Z,3.90
2022-11-14T19:31:04.255Z,4.00
2022-11-14T19:36:57.844Z,4.00
2022-11-14T19:42:06.515Z,4.00
2022-11-14T19:47:27.691Z,4.00
2022-11-14T19:52:48.516Z,4.00
2022-11-14T19:58:09.920Z,3.90
2022-11-14T20:03:31.587Z,4.00
2022-11-14T20:08:54.526Z,4.00
2022-11-14T20:14:18.451Z,3.80
2022-11-14T20:19:39.308Z,3.70
2022-11-14T20:25:00.242Z,3.70
2022-11-14T20:30:21.424Z,3.60
2022-11-14T20:41:04.518Z,3.50
2022-11-14T20:46:25.826Z,3.50
2022-11-14T20:51:48.739Z,3.40
2022-11-14T20:57:10.137Z,3.20
2022-11-14T21:02:32.803Z,3.30
2022-11-14T21:07:53.608Z,3.40
2022-11-14T21:13:36.905Z,3.20
2022-11-14T21:18:58.238Z,3.40
2022-11-14T21:24:19.410Z,3.40
2022-11-14T21:29:40.134Z,3.20
2022-11-14T21:35:03.370Z,3.40
2022-11-14T21:40:28.254Z,3.30
2022-11-14T21:45:57.288Z,3.10
2022-11-14T21:51:20.582Z,3.00
2022-11-14T21:56:41.538Z,3.00
2022-11-14T22:02:21.053Z,2.90
2022-11-14T22:07:42.403Z,2.80
2022-11-14T22:13:03.374Z,2.70
2022-11-14T22:18:24.529Z,2.80
2022-11-14T22:23:45.458Z,3.00
2022-11-14T22:29:07.357Z,3.20
2022-11-14T22:34:31.848Z,3.30
2022-11-14T22:39:52.540Z,3.50
2022-11-14T22:45:13.680Z,3.70
2022-11-14T22:55:57.462Z,4.00
2022-11-14T23:01:25.075Z,4.00
2022-11-14T23:06:46.303Z,4.10
2022-11-14T23:12:07.157Z,4.40
2022-11-14T23:17:28.439Z,4.20
2022-11-14T23:22:49.158Z,4.40
2022-11-14T23:28:10.152Z,4.20
2022-11-14T23:33:31.631Z,4.30
2022-11-14T23:38:53.871Z,4.30
2022-11-14T23:44:14.762Z,4.30
2022-11-14T23:49:37.339Z,4.30
2022-11-14T23:54:58.400Z,4.40
